Time;durP1;ratioP1;P1;durP2;ratioP2;P2;SDS_P1;SDS_P2;PMS_P1;PMS_P2;Temp;Humidity;BMP_temperature;BMP_pressure;BME280_temperature;BME280_humidity;BME280_pressure;Samples;Min_cycle;Max_cycle;Signal;HPM_P1;HPM_P2
2023/07/16 00:00:33;;;;;;;4.72;1.60;;;;;;;;;;5077825;28;20049;-79
2023/07/16 00:03:00;;;;;;;3.70;1.40;;;;;;;;;;5080386;28;20045;-78
2023/07/16 00:05:27;;;;;;;2.60;1.23;;;;;;;;;;5080245;28;20106;-78
2023/07/16 00:07:54;;;;;;;2.97;1.13;;;;;;;;;;5079297;28;20052;-78
2023/07/16 00:10:20;;;;;;;2.20;0.98;;;;;;;;;;5078774;28;20055;-79
2023/07/16 00:12:47;;;;;;;2.70;1.13;;;;;;;;;;5079739;28;20125;-78
2023/07/16 00:15:14;;;;;;;2.88;1.20;;;;;;;;;;5080238;28;20587;-78
2023/07/16 00:17:40;;;;;;;3.10;1.20;;;;;;;;;;5078350;28;20040;-80
2023/07/16 00:20:08;;;;;;;1.73;0.88;;;;;;;;;;5077476;28;20450;-78
2023/07/16 00:22:35;;;;;;;5.55;1.27;;;;;;;;;;5076654;28;20064;-79
2023/07/16 00:25:02;;;;;;;2.95;1.17;;;;;;;;;;5075494;28;20123;-80
2023/07/16 00:27:30;;;;;;;4.97;1.02;;;;;;;;;;5075735;28;20044;-80
2023/07/16 00:29:56;;;;;;;3.28;1.23;;;;;;;;;;5074552;28;20453;-79
2023/07/16 00:32:23;;;;;;;4.05;1.50;;;;;;;;;;5076735;28;20402;-80
2023/07/16 00:34:50;;;;;;;3.30;1.30;;;;;;;;;;5077684;28;20040;-80
2023/07/16 00:37:17;;;;;;;2.80;1.40;;;;;;;;;;5073951;28;20087;-78
2023/07/16 00:39:44;;;;;;;3.97;1.13;;;;;;;;;;5078250;28;20433;-80
2023/07/16 00:42:13;;;;;;;4.45;1.50;;;;;;;;;;5077788;28;20052;-79
2023/07/16 00:44:43;;;;;;;4.25;1.63;;;;;;;;;;5076984;28;20071;-80
2023/07/16 00:47:10;;;;;;;5.80;1.23;;;;;;;;;;5080264;28;20472;-79
2023/07/16 00:49:37;;;;;;;2.97;1.38;;;;;;;;;;5086542;28;20041;-78
2023/07/16 00:52:07;;;;;;;2.47;1.33;;;;;;;;;;5082006;28;20048;-78
2023/07/16 00:54:34;;;;;;;7.00;1.67;;;;;;;;;;5085358;28;20057;-78
2023/07/16 00:57:03;;;;;;;4.18;1.70;;;;;;;;;;5088105;28;20123;-78
2023/07/16 00:59:32;;;;;;;5.75;1.48;;;;;;;;;;5080727;28;20052;-79
2023/07/16 01:01:58;;;;;;;4.25;1.48;;;;;;;;;;5079345;28;20427;-79
2023/07/16 01:04:30;;;;;;;2.92;1.58;;;;;;;;;;5077640;28;20044;-79
2023/07/16 01:07:00;;;;;;;2.72;1.45;;;;;;;;;;5079797;28;20060;-79
2023/07/16 01:09:37;;;;;;;5.35;1.73;;;;;;;;;;5080332;28;20048;-78
2023/07/16 01:12:04;;;;;;;4.35;1.50;;;;;;;;;;5079500;28;20067;-79
2023/07/16 01:14:33;;;;;;;4.18;1.80;;;;;;;;;;5078967;28;20267;-80
2023/07/16 01:17:03;;;;;;;4.68;1.77;;;;;;;;;;5077231;28;20048;-80
2023/07/16 01:19:29;;;;;;;3.47;1.50;;;;;;;;;;5078923;28;20054;-77
2023/07/16 01:21:59;;;;;;;3.20;1.48;;;;;;;;;;5079352;28;20053;-80
2023/07/16 01:24:39;;;;;;;4.25;1.45;;;;;;;;;;5075201;28;20044;-79
2023/07/16 01:27:25;;;;;;;3.97;1.52;;;;;;;;;;5075210;28;20052;-81
2023/07/16 01:29:54;;;;;;;4.13;1.90;;;;;;;;;;5076013;28;20181;-78
2023/07/16 01:32:32;;;;;;;4.13;1.90;;;;;;;;;;5075484;28;20139;-80
2023/07/16 01:35:11;;;;;;;4.28;1.90;;;;;;;;;;5077367;28;20048;-81
2023/07/16 01:37:43;;;;;;;4.90;2.20;;;;;;;;;;5071795;28;20120;-81
2023/07/16 01:40:11;;;;;;;5.97;2.10;;;;;;;;;;5055518;28;20507;-80
2023/07/16 01:42:38;;;;;;;4.88;2.30;;;;;;;;;;5056104;28;20049;-83
2023/07/16 01:45:05;;;;;;;7.35;2.42;;;;;;;;;;5054941;28;20131;-81
2023/07/16 01:47:40;;;;;;;7.57;2.50;;;;;;;;;;5054176;28;20132;-81
2023/07/16 01:50:09;;;;;;;7.00;2.40;;;;;;;;;;5053249;28;20503;-82
2023/07/16 01:52:36;;;;;;;8.60;3.13;;;;;;;;;;5054534;28;20053;-81
2023/07/16 01:55:03;;;;;;;6.60;3.05;;;;;;;;;;5051865;28;20166;-81
2023/07/16 01:57:30;;;;;;;7.72;2.88;;;;;;;;;;5052083;28;20053;-82
2023/07/16 01:59:56;;;;;;;9.13;3.20;;;;;;;;;;5055926;28;20049;-82
2023/07/16 02:02:24;;;;;;;7.75;3.05;;;;;;;;;;5055301;28;20134;-82
2023/07/16 02:04:51;;;;;;;8.98;3.22;;;;;;;;;;5061517;28;20048;-79
2023/07/16 02:07:18;;;;;;;9.07;2.72;;;;;;;;;;5064524;28;20083;-82
2023/07/16 02:09:44;;;;;;;7.15;3.28;;;;;;;;;;5059564;28;20261;-81
2023/07/16 02:12:11;;;;;;;5.85;2.83;;;;;;;;;;5050460;28;20368;-82
2023/07/16 02:14:38;;;;;;;7.43;3.15;;;;;;;;;;5051721;28;20080;-80
2023/07/16 02:17:04;;;;;;;6.13;3.00;;;;;;;;;;5034005;28;20037;-82
2023/07/16 02:19:32;;;;;;;6.50;3.10;;;;;;;;;;5052704;28;20079;-82
2023/07/16 02:21:58;;;;;;;7.10;2.67;;;;;;;;;;5053459;28;20111;-83
2023/07/16 02:24:27;;;;;;;6.72;3.25;;;;;;;;;;5052389;28;20049;-82
2023/07/16 02:26:54;;;;;;;6.38;3.20;;;;;;;;;;5051086;28;20327;-81
2023/07/16 02:29:21;;;;;;;4.65;2.95;;;;;;;;;;5052500;28;20075;-81
2023/07/16 02:31:48;;;;;;;4.60;2.80;;;;;;;;;;5050141;28;20471;-82
2023/07/16 02:34:15;;;;;;;4.18;2.88;;;;;;;;;;5060903;28;20138;-82
2023/07/16 02:36:41;;;;;;;4.65;2.72;;;;;;;;;;5051751;28;20049;-81
2023/07/16 02:39:08;;;;;;;7.25;3.42;;;;;;;;;;5066430;28;20147;-83
2023/07/16 02:41:35;;;;;;;5.78;2.97;;;;;;;;;;5073583;28;20060;-82
2023/07/16 02:44:05;;;;;;;4.60;2.90;;;;;;;;;;5073269;28;20036;-81
2023/07/16 02:46:32;;;;;;;6.78;2.60;;;;;;;;;;5054977;28;20103;-80
2023/07/16 02:48:59;;;;;;;5.00;2.42;;;;;;;;;;5072549;28;20045;-80
2023/07/16 02:51:28;;;;;;;4.03;2.60;;;;;;;;;;5073564;28;20079;-81
2023/07/16 02:53:54;;;;;;;5.82;2.70;;;;;;;;;;5070270;28;20464;-82
2023/07/16 02:56:21;;;;;;;6.38;2.45;;;;;;;;;;5070478;28;20473;-82
2023/07/16 02:58:47;;;;;;;7.45;3.25;;;;;;;;;;5055062;28;20062;-82
2023/07/16 03:01:14;;;;;;;4.30;2.72;;;;;;;;;;5070765;28;20043;-82
2023/07/16 03:03:42;;;;;;;5.53;2.50;;;;;;;;;;5070446;28;20422;-83
2023/07/16 03:06:08;;;;;;;5.13;2.53;;;;;;;;;;5071045;28;20502;-82
2023/07/16 03:08:38;;;;;;;3.33;2.47;;;;;;;;;;5071575;28;20436;-83
2023/07/16 03:11:05;;;;;;;4.72;2.80;;;;;;;;;;5070799;28;20071;-83
2023/07/16 03:13:31;;;;;;;7.90;3.22;;;;;;;;;;5072920;28;20090;-82
2023/07/16 03:15:58;;;;;;;5.00;2.50;;;;;;;;;;5072800;28;20041;-82
2023/07/16 03:18:28;;;;;;;4.18;2.65;;;;;;;;;;5070045;28;20444;-81
2023/07/16 03:20:56;;;;;;;3.80;2.83;;;;;;;;;;5061283;28;20043;-81
2023/07/16 03:23:23;;;;;;;4.30;2.47;;;;;;;;;;5070948;28;20193;-81
2023/07/16 03:25:53;;;;;;;4.75;2.47;;;;;;;;;;5071143;28;20191;-82
2023/07/16 03:28:20;;;;;;;8.05;2.83;;;;;;;;;;5072352;28;24567;-80
2023/07/16 03:30:51;;;;;;;6.40;2.97;;;;;;;;;;5073190;28;20048;-80
2023/07/16 03:33:19;;;;;;;5.18;2.88;;;;;;;;;;5069835;28;20509;-82
2023/07/16 03:35:46;;;;;;;6.70;3.22;;;;;;;;;;5070028;28;20123;-80
2023/07/16 03:38:13;;;;;;;4.75;2.75;;;;;;;;;;5065292;28;20045;-84
2023/07/16 03:40:42;;;;;;;4.80;2.60;;;;;;;;;;5049336;28;20095;-82
2023/07/16 03:43:11;;;;;;;5.15;2.80;;;;;;;;;;5050451;28;20057;-80
2023/07/16 03:45:38;;;;;;;5.95;2.90;;;;;;;;;;5050143;28;20514;-79
2023/07/16 03:48:05;;;;;;;3.65;2.78;;;;;;;;;;5050472;28;20351;-81
2023/07/16 03:50:32;;;;;;;5.95;3.22;;;;;;;;;;5050243;28;20041;-80
2023/07/16 03:53:00;;;;;;;6.35;3.00;;;;;;;;;;5051522;28;20059;-81
2023/07/16 03:55:26;;;;;;;10.50;3.05;;;;;;;;;;5050691;28;20474;-83
2023/07/16 03:57:54;;;;;;;5.75;2.90;;;;;;;;;;5051256;28;20057;-81
2023/07/16 04:00:23;;;;;;;5.28;2.90;;;;;;;;;;5050225;28;20163;-80
2023/07/16 04:02:51;;;;;;;6.68;2.97;;;;;;;;;;5050591;28;20041;-81
2023/07/16 04:05:18;;;;;;;4.32;2.60;;;;;;;;;;5051055;28;20057;-81
2023/07/16 04:07:50;;;;;;;4.45;2.95;;;;;;;;;;5050353;28;20055;-80
2023/07/16 04:10:17;;;;;;;7.53;2.80;;;;;;;;;;5050900;28;20060;-81
2023/07/16 04:12:44;;;;;;;5.10;2.58;;;;;;;;;;5051251;28;20095;-81
2023/07/16 04:15:11;;;;;;;5.40;2.70;;;;;;;;;;5035542;28;20051;-78
2023/07/16 04:17:38;;;;;;;6.85;2.97;;;;;;;;;;5053978;28;20045;-80
2023/07/16 04:20:07;;;;;;;7.95;3.03;;;;;;;;;;5054587;28;20049;-80
2023/07/16 04:22:37;;;;;;;5.82;2.70;;;;;;;;;;5053117;28;20044;-81
2023/07/16 04:25:04;;;;;;;6.93;3.38;;;;;;;;;;5053313;28;20037;-81
2023/07/16 04:27:31;;;;;;;4.65;2.70;;;;;;;;;;5051114;28;20143;-81
2023/07/16 04:29:57;;;;;;;6.72;2.78;;;;;;;;;;5050224;28;20466;-79
2023/07/16 04:32:24;;;;;;;5.60;2.90;;;;;;;;;;5051819;28;20088;-81
2023/07/16 04:34:51;;;;;;;7.55;2.80;;;;;;;;;;5051972;28;20106;-80
2023/07/16 04:37:17;;;;;;;4.47;2.60;;;;;;;;;;5048548;28;20458;-82
2023/07/16 04:39:44;;;;;;;4.25;2.85;;;;;;;;;;5070859;28;20040;-82
2023/07/16 04:42:11;;;;;;;5.03;2.78;;;;;;;;;;5072582;28;20063;-80
2023/07/16 04:44:40;;;;;;;4.38;2.72;;;;;;;;;;5074687;28;20070;-81
2023/07/16 04:47:15;;;;;;;4.72;2.35;;;;;;;;;;5070683;28;20055;-81
2023/07/16 04:49:42;;;;;;;3.60;2.05;;;;;;;;;;5075126;28;20047;-80
2023/07/16 04:52:09;;;;;;;4.35;1.90;;;;;;;;;;5075576;28;20048;-80
2023/07/16 04:54:36;;;;;;;4.78;2.08;;;;;;;;;;5076318;28;20137;-82
2023/07/16 04:57:04;;;;;;;3.33;1.85;;;;;;;;;;5058568;28;20413;-80
2023/07/16 04:59:34;;;;;;;2.28;1.65;;;;;;;;;;5075641;28;20048;-81
2023/07/16 05:02:02;;;;;;;3.28;2.08;;;;;;;;;;5057744;28;20060;-80
2023/07/16 05:04:28;;;;;;;3.85;1.77;;;;;;;;;;5077513;28;20100;-82
2023/07/16 05:06:55;;;;;;;3.53;1.90;;;;;;;;;;5077366;28;20123;-81
2023/07/16 05:09:22;;;;;;;1.60;1.35;;;;;;;;;;5075665;28;20370;-81
2023/07/16 05:11:48;;;;;;;2.72;1.73;;;;;;;;;;5077849;28;20055;-80
2023/07/16 05:14:15;;;;;;;5.10;1.90;;;;;;;;;;5077917;28;20049;-80
2023/07/16 05:16:42;;;;;;;1.70;1.30;;;;;;;;;;5079859;28;20037;-81
2023/07/16 05:19:08;;;;;;;2.90;1.45;;;;;;;;;;5086988;28;20672;-81
2023/07/16 05:21:35;;;;;;;1.60;1.30;;;;;;;;;;5086995;28;20037;-81
2023/07/16 05:24:02;;;;;;;2.60;1.40;;;;;;;;;;5081545;28;20495;-82
2023/07/16 05:26:28;;;;;;;1.23;0.93;;;;;;;;;;5075057;28;20498;-82
2023/07/16 05:28:55;;;;;;;1.67;1.17;;;;;;;;;;5075855;28;20048;-79
2023/07/16 05:31:21;;;;;;;2.65;1.17;;;;;;;;;;5076594;28;20056;-80
2023/07/16 05:33:48;;;;;;;2.17;1.17;;;;;;;;;;5074256;28;20054;-80
2023/07/16 05:36:15;;;;;;;4.20;1.45;;;;;;;;;;5075631;28;20380;-80
2023/07/16 05:38:42;;;;;;;2.22;1.10;;;;;;;;;;5064105;28;20060;-81
2023/07/16 05:41:10;;;;;;;1.77;1.42;;;;;;;;;;5053214;28;20472;-81
2023/07/16 05:43:37;;;;;;;2.88;1.15;;;;;;;;;;5057321;28;20235;-81
2023/07/16 05:46:05;;;;;;;3.33;1.30;;;;;;;;;;5055420;28;20041;-80
2023/07/16 05:48:32;;;;;;;2.08;1.15;;;;;;;;;;5055833;28;20049;-81
2023/07/16 05:50:59;;;;;;;1.55;1.20;;;;;;;;;;5056061;28;20156;-80
2023/07/16 05:53:34;;;;;;;2.03;1.17;;;;;;;;;;5057061;28;20136;-80
2023/07/16 05:56:00;;;;;;;1.50;1.15;;;;;;;;;;5055572;28;20064;-81
2023/07/16 05:58:33;;;;;;;2.60;1.20;;;;;;;;;;5057009;28;20052;-78
2023/07/16 06:01:02;;;;;;;3.85;1.40;;;;;;;;;;5057670;28;20045;-79
2023/07/16 06:03:29;;;;;;;3.35;1.42;;;;;;;;;;5057177;28;20190;-81
2023/07/16 06:05:55;;;;;;;3.20;1.40;;;;;;;;;;5054935;28;20333;-81
2023/07/16 06:08:24;;;;;;;1.75;1.30;;;;;;;;;;5055633;28;20068;-79
2023/07/16 06:10:51;;;;;;;3.20;1.30;;;;;;;;;;5053160;28;20129;-79
2023/07/16 06:13:17;;;;;;;1.70;1.20;;;;;;;;;;5055058;28;20132;-81
2023/07/16 06:15:44;;;;;;;1.77;1.17;;;;;;;;;;5054090;28;20037;-80
2023/07/16 06:18:11;;;;;;;1.60;1.35;;;;;;;;;;5054645;28;20048;-78
2023/07/16 06:20:44;;;;;;;2.97;1.38;;;;;;;;;;5056240;28;20056;-82
2023/07/16 06:23:11;;;;;;;1.88;1.40;;;;;;;;;;5055488;28;20044;-78
2023/07/16 06:25:40;;;;;;;2.25;1.50;;;;;;;;;;5054605;28;20612;-80
2023/07/16 06:28:07;;;;;;;2.05;1.38;;;;;;;;;;5055343;28;20041;-80
2023/07/16 06:30:33;;;;;;;3.97;1.70;;;;;;;;;;5052913;28;20057;-79
2023/07/16 06:33:00;;;;;;;5.20;1.48;;;;;;;;;;5052340;28;20044;-78
2023/07/16 06:35:27;;;;;;;3.13;1.60;;;;;;;;;;5053324;28;20082;-77
2023/07/16 06:37:54;;;;;;;2.40;1.13;;;;;;;;;;5057431;28;20049;-79
2023/07/16 06:40:21;;;;;;;4.57;1.60;;;;;;;;;;5073575;28;20048;-77
2023/07/16 06:42:48;;;;;;;2.20;1.38;;;;;;;;;;5073766;28;20104;-78
2023/07/16 06:45:15;;;;;;;2.63;1.20;;;;;;;;;;5070633;28;20059;-79
2023/07/16 06:47:42;;;;;;;2.97;1.38;;;;;;;;;;5074648;28;20056;-76
2023/07/16 06:50:10;;;;;;;2.97;1.40;;;;;;;;;;5073411;28;20113;-81
2023/07/16 06:52:36;;;;;;;5.10;1.38;;;;;;;;;;5074294;28;20414;-79
2023/07/16 06:55:03;;;;;;;3.30;1.40;;;;;;;;;;5073444;28;20048;-81
2023/07/16 06:57:30;;;;;;;4.25;1.45;;;;;;;;;;5076699;28;20040;-78
2023/07/16 06:59:56;;;;;;;4.32;1.65;;;;;;;;;;5080033;28;20542;-80
2023/07/16 07:02:23;;;;;;;2.10;1.40;;;;;;;;;;5077556;28;20116;-80
2023/07/16 07:04:53;;;;;;;1.85;1.30;;;;;;;;;;5079563;28;20045;-80
2023/07/16 07:07:20;;;;;;;3.85;1.50;;;;;;;;;;5076272;28;20136;-81
2023/07/16 07:09:49;;;;;;;4.43;1.40;;;;;;;;;;5077009;28;20049;-80
2023/07/16 07:12:16;;;;;;;4.93;1.50;;;;;;;;;;5079117;28;20067;-79
2023/07/16 07:14:42;;;;;;;4.25;1.30;;;;;;;;;;5077943;28;20048;-79
2023/07/16 07:17:12;;;;;;;2.72;1.40;;;;;;;;;;5076174;28;20082;-80
2023/07/16 07:19:38;;;;;;;4.55;1.27;;;;;;;;;;5076700;28;20059;-78
2023/07/16 07:22:05;;;;;;;3.97;1.23;;;;;;;;;;5075641;28;20518;-77
2023/07/16 07:24:31;;;;;;;4.53;1.40;;;;;;;;;;5078030;28;20048;-79
2023/07/16 07:26:58;;;;;;;3.25;1.40;;;;;;;;;;5077468;28;20053;-80
2023/07/16 07:29:24;;;;;;;1.67;1.17;;;;;;;;;;5079360;28;20079;-79
2023/07/16 07:31:52;;;;;;;2.88;1.35;;;;;;;;;;5074111;28;20040;-79
2023/07/16 07:34:18;;;;;;;2.83;1.25;;;;;;;;;;5070191;28;20219;-79
2023/07/16 07:36:45;;;;;;;3.50;1.33;;;;;;;;;;5070352;28;20464;-79
2023/07/16 07:39:16;;;;;;;2.70;1.42;;;;;;;;;;5057234;28;20056;-79
2023/07/16 07:41:43;;;;;;;1.83;1.23;;;;;;;;;;5054746;28;20076;-78
2023/07/16 07:44:09;;;;;;;1.98;1.30;;;;;;;;;;5054357;28;20044;-78
2023/07/16 07:46:36;;;;;;;7.47;1.60;;;;;;;;;;5053946;28;20111;-80
2023/07/16 07:49:03;;;;;;;4.32;1.30;;;;;;;;;;5055257;28;20048;-79
2023/07/16 07:51:29;;;;;;;3.83;1.55;;;;;;;;;;5054803;28;20470;-79
2023/07/16 07:53:56;;;;;;;2.42;1.40;;;;;;;;;;5038548;28;20067;-78
2023/07/16 07:56:23;;;;;;;2.67;1.17;;;;;;;;;;5058112;28;20044;-77
2023/07/16 07:58:49;;;;;;;2.28;1.10;;;;;;;;;;5063923;28;20049;-79
2023/07/16 08:01:16;;;;;;;2.92;1.33;;;;;;;;;;5058054;28;20041;-79
2023/07/16 08:03:43;;;;;;;3.13;1.10;;;;;;;;;;5056302;28;20040;-79
2023/07/16 08:06:11;;;;;;;3.67;1.60;;;;;;;;;;5054467;28;20045;-79
2023/07/16 08:08:38;;;;;;;3.90;1.27;;;;;;;;;;5055521;28;20483;-78
2023/07/16 08:11:05;;;;;;;4.50;1.42;;;;;;;;;;5054883;28;20044;-79
2023/07/16 08:13:31;;;;;;;3.40;1.02;;;;;;;;;;5076850;28;20068;-78
2023/07/16 08:15:58;;;;;;;3.35;1.50;;;;;;;;;;5078095;28;20048;-79
2023/07/16 08:18:25;;;;;;;7.40;1.25;;;;;;;;;;5076735;28;20041;-79
2023/07/16 08:20:52;;;;;;;4.07;1.40;;;;;;;;;;5079058;28;20049;-80
2023/07/16 08:23:18;;;;;;;4.10;1.60;;;;;;;;;;5079284;28;20056;-80
2023/07/16 08:25:50;;;;;;;3.58;1.40;;;;;;;;;;5076271;28;20424;-78
2023/07/16 08:28:17;;;;;;;4.70;1.40;;;;;;;;;;5080424;28;20112;-79
2023/07/16 08:30:46;;;;;;;6.43;1.20;;;;;;;;;;5078261;28;20040;-80
2023/07/16 08:33:14;;;;;;;5.43;1.33;;;;;;;;;;5080525;28;20198;-81
2023/07/16 08:35:42;;;;;;;2.75;1.25;;;;;;;;;;5087143;28;20037;-79
2023/07/16 08:38:11;;;;;;;3.38;1.40;;;;;;;;;;5087398;28;20040;-78
2023/07/16 08:40:38;;;;;;;3.88;1.25;;;;;;;;;;5072486;28;20067;-80
2023/07/16 08:43:06;;;;;;;4.80;1.30;;;;;;;;;;5058855;28;20454;-80
2023/07/16 08:45:39;;;;;;;5.05;1.25;;;;;;;;;;5057382;28;20056;-79
2023/07/16 08:48:07;;;;;;;4.78;1.60;;;;;;;;;;5059975;28;20430;-81
2023/07/16 08:50:35;;;;;;;4.00;1.40;;;;;;;;;;5070892;28;20075;-79
2023/07/16 08:53:01;;;;;;;2.38;1.20;;;;;;;;;;5073421;28;20043;-81
2023/07/16 08:55:28;;;;;;;5.03;1.30;;;;;;;;;;5072963;28;20040;-78
2023/07/16 08:57:55;;;;;;;4.32;1.45;;;;;;;;;;5071388;28;20056;-81
2023/07/16 09:00:22;;;;;;;3.28;1.20;;;;;;;;;;5069531;28;20052;-78
2023/07/16 09:02:49;;;;;;;2.67;1.30;;;;;;;;;;5052081;28;20044;-81
2023/07/16 09:05:19;;;;;;;5.05;1.42;;;;;;;;;;5051574;28;20041;-79
2023/07/16 09:08:03;;;;;;;3.20;1.30;;;;;;;;;;5051985;28;20045;-78
2023/07/16 09:10:31;;;;;;;3.20;1.30;;;;;;;;;;5051630;28;20068;-80
2023/07/16 09:12:58;;;;;;;4.45;1.38;;;;;;;;;;5052730;28;20045;-80
2023/07/16 09:15:28;;;;;;;5.47;1.13;;;;;;;;;;5054702;28;20056;-80
2023/07/16 09:17:55;;;;;;;2.95;1.30;;;;;;;;;;5075274;28;20068;-78
2023/07/16 09:20:25;;;;;;;5.47;1.60;;;;;;;;;;5070739;28;20082;-79
2023/07/16 09:22:57;;;;;;;3.97;1.20;;;;;;;;;;5057746;28;20051;-78
2023/07/16 09:25:28;;;;;;;3.35;1.33;;;;;;;;;;5060309;28;20061;-80
2023/07/16 09:27:57;;;;;;;3.70;1.27;;;;;;;;;;5058322;28;20045;-78
2023/07/16 09:30:24;;;;;;;5.32;1.50;;;;;;;;;;5064760;28;20079;-79
2023/07/16 09:32:50;;;;;;;3.97;1.40;;;;;;;;;;5070055;28;20037;-80
2023/07/16 09:35:17;;;;;;;3.45;1.60;;;;;;;;;;5071162;28;20036;-79
2023/07/16 09:37:44;;;;;;;4.93;1.60;;;;;;;;;;5074485;28;20024;-80
2023/07/16 09:40:11;;;;;;;3.13;1.30;;;;;;;;;;5082121;28;20241;-79
2023/07/16 09:42:39;;;;;;;4.25;1.52;;;;;;;;;;5083363;28;20033;-80
2023/07/16 09:45:07;;;;;;;3.90;1.30;;;;;;;;;;5083034;28;20139;-81
2023/07/16 09:47:34;;;;;;;2.67;1.20;;;;;;;;;;5081871;28;20040;-79
2023/07/16 09:50:02;;;;;;;4.30;1.52;;;;;;;;;;5082688;28;20091;-82
2023/07/16 09:52:29;;;;;;;2.67;1.38;;;;;;;;;;5081886;28;20052;-80
2023/07/16 09:54:56;;;;;;;3.40;1.30;;;;;;;;;;5076750;28;20138;-80
2023/07/16 09:57:25;;;;;;;2.78;1.20;;;;;;;;;;5074789;28;20171;-81
2023/07/16 09:59:53;;;;;;;2.58;1.30;;;;;;;;;;5073634;28;20056;-79
2023/07/16 10:02:20;;;;;;;2.83;1.40;;;;;;;;;;5073882;28;20059;-80
2023/07/16 10:04:47;;;;;;;3.28;1.30;;;;;;;;;;5074056;28;20044;-79
2023/07/16 10:07:21;;;;;;;3.08;1.50;;;;;;;;;;5075530;28;20048;-79
2023/07/16 10:09:52;;;;;;;2.85;1.35;;;;;;;;;;5076245;28;20113;-79
2023/07/16 10:12:19;;;;;;;4.13;1.67;;;;;;;;;;5074851;28;20052;-78
2023/07/16 10:14:47;;;;;;;3.47;1.65;;;;;;;;;;5073951;28;20071;-79
2023/07/16 10:17:21;;;;;;;3.00;1.40;;;;;;;;;;5075311;28;20063;-79
2023/07/16 10:20:07;;;;;;;4.22;1.50;;;;;;;;;;5076669;28;20121;-80
2023/07/16 10:22:40;;;;;;;4.60;1.60;;;;;;;;;;5075179;28;20155;-79
2023/07/16 10:25:18;;;;;;;4.55;1.60;;;;;;;;;;5076523;28;20497;-79
2023/07/16 10:27:46;;;;;;;7.03;1.40;;;;;;;;;;5076450;28;20041;-80
2023/07/16 10:30:13;;;;;;;5.20;1.48;;;;;;;;;;5077461;28;20051;-80
2023/07/16 10:32:40;;;;;;;5.40;1.90;;;;;;;;;;5078981;28;20052;-81
2023/07/16 10:35:10;;;;;;;4.15;1.60;;;;;;;;;;5079410;28;20132;-80
2023/07/16 10:37:37;;;;;;;5.93;1.55;;;;;;;;;;5079416;28;20183;-79
2023/07/16 10:40:04;;;;;;;3.85;1.67;;;;;;;;;;5059694;28;20049;-82
2023/07/16 10:42:32;;;;;;;3.88;1.60;;;;;;;;;;5061794;28;20316;-81
2023/07/16 10:45:03;;;;;;;2.78;1.30;;;;;;;;;;5062903;28;20454;-79
2023/07/16 10:47:30;;;;;;;3.30;1.50;;;;;;;;;;5058458;28;20056;-80
2023/07/16 10:49:57;;;;;;;2.67;1.55;;;;;;;;;;5057944;28;20104;-78
2023/07/16 10:52:24;;;;;;;4.32;1.70;;;;;;;;;;5058119;28;20045;-78
2023/07/16 10:54:54;;;;;;;3.55;1.80;;;;;;;;;;5057875;28;20037;-80
2023/07/16 10:57:21;;;;;;;2.88;1.52;;;;;;;;;;5056330;28;20491;-78
2023/07/16 10:59:50;;;;;;;3.08;1.48;;;;;;;;;;5042015;28;20037;-80
2023/07/16 11:02:17;;;;;;;7.10;1.80;;;;;;;;;;5058352;28;20045;-78
2023/07/16 11:04:45;;;;;;;2.85;1.40;;;;;;;;;;5060765;28;20418;-81
2023/07/16 11:07:12;;;;;;;6.93;1.70;;;;;;;;;;5060691;28;20063;-80
2023/07/16 11:09:43;;;;;;;3.08;1.40;;;;;;;;;;5059393;28;20186;-81
2023/07/16 11:12:11;;;;;;;4.30;1.45;;;;;;;;;;5059325;28;20049;-80
2023/07/16 11:14:38;;;;;;;4.75;1.70;;;;;;;;;;5059121;28;20055;-79
2023/07/16 11:17:06;;;;;;;5.47;1.65;;;;;;;;;;5056617;28;20059;-80
2023/07/16 11:19:33;;;;;;;4.63;1.38;;;;;;;;;;5059686;28;20048;-80
2023/07/16 11:22:00;;;;;;;3.40;1.50;;;;;;;;;;5060728;28;20110;-79
2023/07/16 11:24:27;;;;;;;2.47;1.30;;;;;;;;;;5047039;28;20076;-79
2023/07/16 11:26:57;;;;;;;3.20;1.48;;;;;;;;;;5072390;28;20056;-79
2023/07/16 11:29:24;;;;;;;4.95;1.48;;;;;;;;;;5060002;28;20059;-81
2023/07/16 11:31:51;;;;;;;4.95;1.65;;;;;;;;;;5060617;28;20510;-79
2023/07/16 11:34:24;;;;;;;4.90;1.65;;;;;;;;;;5062074;28;20049;-80
2023/07/16 11:36:51;;;;;;;4.15;1.30;;;;;;;;;;5061682;28;20051;-80
2023/07/16 11:39:20;;;;;;;3.75;1.63;;;;;;;;;;5069466;28;20044;-79
2023/07/16 11:41:56;;;;;;;4.20;1.80;;;;;;;;;;5071194;28;20041;-81
2023/07/16 11:44:25;;;;;;;4.03;1.67;;;;;;;;;;5070077;28;20124;-81
2023/07/16 11:46:51;;;;;;;3.92;1.67;;;;;;;;;;5070966;28;20471;-79
2023/07/16 11:49:18;;;;;;;4.43;1.40;;;;;;;;;;5057807;28;20067;-80
2023/07/16 11:51:45;;;;;;;3.17;1.40;;;;;;;;;;5077364;28;20048;-79
2023/07/16 11:54:12;;;;;;;6.35;1.77;;;;;;;;;;5088634;28;20055;-79
2023/07/16 11:56:38;;;;;;;3.38;1.42;;;;;;;;;;5088895;28;20094;-80
2023/07/16 11:59:05;;;;;;;2.95;1.63;;;;;;;;;;5084978;28;20048;-79
2023/07/16 12:01:32;;;;;;;2.30;1.45;;;;;;;;;;5075050;28;20064;-80
2023/07/16 12:03:58;;;;;;;3.97;1.42;;;;;;;;;;5073759;28;20047;-79
2023/07/16 12:06:27;;;;;;;7.22;1.50;;;;;;;;;;5056999;28;20047;-80
2023/07/16 12:08:55;;;;;;;2.22;1.25;;;;;;;;;;5072980;28;20548;-81
2023/07/16 12:11:22;;;;;;;7.40;1.70;;;;;;;;;;5074454;28;20063;-80
2023/07/16 12:13:48;;;;;;;3.15;1.70;;;;;;;;;;5075323;28;20044;-79
2023/07/16 12:16:15;;;;;;;3.00;1.45;;;;;;;;;;5071858;28;20048;-78
2023/07/16 12:18:42;;;;;;;3.92;1.90;;;;;;;;;;5075117;28;20060;-79
2023/07/16 12:21:08;;;;;;;4.10;1.58;;;;;;;;;;5057026;28;20152;-79
2023/07/16 12:23:35;;;;;;;2.85;1.38;;;;;;;;;;5073763;28;20336;-78
2023/07/16 12:26:01;;;;;;;3.72;1.60;;;;;;;;;;5073716;28;20094;-79
2023/07/16 12:28:28;;;;;;;5.43;1.70;;;;;;;;;;5074113;28;20078;-80
2023/07/16 12:30:54;;;;;;;4.38;1.52;;;;;;;;;;5075428;28;20106;-79
2023/07/16 12:33:21;;;;;;;6.20;1.77;;;;;;;;;;5076353;28;20051;-80
2023/07/16 12:35:47;;;;;;;3.58;1.50;;;;;;;;;;5074647;28;20102;-77
2023/07/16 12:38:15;;;;;;;3.55;1.50;;;;;;;;;;5069124;28;20057;-79
2023/07/16 12:40:42;;;;;;;4.95;1.50;;;;;;;;;;5055379;28;20068;-78
2023/07/16 12:43:09;;;;;;;4.88;1.33;;;;;;;;;;5057004;28;20522;-79
2023/07/16 12:45:35;;;;;;;3.08;1.40;;;;;;;;;;5055068;28;20570;-80
2023/07/16 12:48:02;;;;;;;2.30;1.30;;;;;;;;;;5053774;28;20090;-80
2023/07/16 12:50:29;;;;;;;3.35;1.50;;;;;;;;;;5056300;28;20043;-80
2023/07/16 12:52:55;;;;;;;6.13;1.73;;;;;;;;;;5055168;28;20765;-81
2023/07/16 12:55:23;;;;;;;3.47;1.30;;;;;;;;;;5053568;28;20045;-80
2023/07/16 12:58:02;;;;;;;3.00;1.40;;;;;;;;;;5055263;28;20071;-78
2023/07/16 13:00:29;;;;;;;3.42;1.77;;;;;;;;;;5055371;28;20088;-79
2023/07/16 13:02:55;;;;;;;4.47;1.50;;;;;;;;;;5056885;28;20048;-80
2023/07/16 13:05:22;;;;;;;3.78;1.33;;;;;;;;;;5055822;28;20064;-78
2023/07/16 13:07:49;;;;;;;5.85;1.40;;;;;;;;;;5057301;28;20044;-79
2023/07/16 13:10:15;;;;;;;4.30;1.60;;;;;;;;;;5054993;28;20127;-81
2023/07/16 13:12:49;;;;;;;4.85;1.60;;;;;;;;;;5057194;28;20094;-78
2023/07/16 13:15:16;;;;;;;3.70;1.60;;;;;;;;;;5056057;28;20067;-79
2023/07/16 13:17:42;;;;;;;6.57;1.52;;;;;;;;;;5055262;28;20110;-80
2023/07/16 13:20:09;;;;;;;4.30;1.52;;;;;;;;;;5057354;28;20071;-81
2023/07/16 13:22:36;;;;;;;2.58;1.20;;;;;;;;;;5057501;28;20155;-81
2023/07/16 13:25:02;;;;;;;3.95;1.40;;;;;;;;;;5055916;28;20052;-79
2023/07/16 13:27:29;;;;;;;3.42;1.50;;;;;;;;;;5056246;28;20048;-81
2023/07/16 13:29:56;;;;;;;4.82;1.48;;;;;;;;;;5055851;28;20040;-79
2023/07/16 13:32:22;;;;;;;4.10;1.70;;;;;;;;;;5054733;28;20072;-80
2023/07/16 13:34:49;;;;;;;4.57;1.58;;;;;;;;;;5056354;28;20456;-80
2023/07/16 13:37:16;;;;;;;3.53;1.35;;;;;;;;;;5053877;28;20045;-80
2023/07/16 13:39:42;;;;;;;5.00;1.65;;;;;;;;;;5075778;28;20045;-80
2023/07/16 13:42:10;;;;;;;3.63;1.48;;;;;;;;;;5079427;28;20044;-80
2023/07/16 13:44:48;;;;;;;2.13;1.20;;;;;;;;;;5072827;28;20049;-81
2023/07/16 13:47:15;;;;;;;4.03;1.35;;;;;;;;;;5054603;28;20473;-79
2023/07/16 13:49:41;;;;;;;4.38;1.50;;;;;;;;;;5058787;28;20105;-81
2023/07/16 13:52:08;;;;;;;3.05;1.30;;;;;;;;;;5057521;28;20064;-80
2023/07/16 13:54:35;;;;;;;3.53;1.50;;;;;;;;;;5042093;28;20119;-79
2023/07/16 13:57:04;;;;;;;4.15;1.60;;;;;;;;;;5056393;28;20048;-79
2023/07/16 13:59:31;;;;;;;2.85;1.30;;;;;;;;;;5055396;28;20044;-78
2023/07/16 14:02:01;;;;;;;5.35;1.50;;;;;;;;;;5055661;28;20057;-80
2023/07/16 14:04:28;;;;;;;2.97;1.60;;;;;;;;;;5053820;28;20045;-79
2023/07/16 14:06:56;;;;;;;4.30;1.20;;;;;;;;;;5052462;28;20060;-80
2023/07/16 14:09:22;;;;;;;3.42;1.33;;;;;;;;;;5052489;28;20064;-79
2023/07/16 14:11:49;;;;;;;5.10;1.70;;;;;;;;;;5055727;28;20056;-80
2023/07/16 14:14:16;;;;;;;4.57;1.52;;;;;;;;;;5058127;28;20048;-79
2023/07/16 14:16:43;;;;;;;3.60;1.40;;;;;;;;;;5054599;28;20045;-79
2023/07/16 14:19:12;;;;;;;3.28;1.40;;;;;;;;;;5057873;28;20055;-81
2023/07/16 14:21:38;;;;;;;4.25;1.90;;;;;;;;;;5058028;28;20063;-80
2023/07/16 14:24:08;;;;;;;3.95;1.40;;;;;;;;;;5056537;28;20040;-80
2023/07/16 14:26:35;;;;;;;3.63;1.40;;;;;;;;;;5055522;28;20045;-78
2023/07/16 14:29:01;;;;;;;3.85;1.40;;;;;;;;;;5056043;28;20430;-80
2023/07/16 14:31:28;;;;;;;2.80;1.27;;;;;;;;;;5055535;28;20045;-80
2023/07/16 14:33:55;;;;;;;2.70;1.38;;;;;;;;;;5053502;28;20045;-81
2023/07/16 14:36:22;;;;;;;4.50;1.45;;;;;;;;;;5053672;28;20045;-80
2023/07/16 14:38:48;;;;;;;3.67;1.35;;;;;;;;;;5067506;28;20060;-79
2023/07/16 14:41:15;;;;;;;3.00;1.52;;;;;;;;;;5072527;28;20127;-80
2023/07/16 14:43:42;;;;;;;3.47;1.52;;;;;;;;;;5073019;28;20037;-79
2023/07/16 14:46:15;;;;;;;3.72;1.40;;;;;;;;;;5076609;28;20045;-80